Carp, Nevada
Current Conditions -  °F | °C
As of 6:55 PM on Saturday 25 Oct 2014 (Local Time) from KSGU Reporting Station
Clear Clear  
Wind Chill: 73°   Ceiling: Unl
Heat Index: 73°   Visibility: 10mi
Dew Point: 39°   Wind: 7mph
Humidity: 29%   Direction: 160°SSE
Pressure: 29.99"   Gusts: NA
Location:  37.2951°N, 114.495°W
Report Text: KSGU 260155Z AUTO 16006KT 10SM CLR 23/04 A2999 RMK AO1
Loading
Personal Weather Stations






























Interactive Weather Map
Tropical Storm Tracking
New forecast layout! Learn more

10-Day Weather Forecast

Advertisements
Track Severe Weather on mobile